sensor_id;sensor_type;location;lat;lon;timestamp;P1;durP1;ratioP1;P2;durP2;ratioP2
25717;SDS011;13574;52.040;5.692;2023-04-06T00:01:35;14.32;;;7.32;;
25717;SDS011;13574;52.040;5.692;2023-04-06T00:04:01;12.73;;;7.47;;
25717;SDS011;13574;52.040;5.692;2023-04-06T00:06:27;17.60;;;8.35;;
25717;SDS011;13574;52.040;5.692;2023-04-06T00:08:53;13.23;;;7.78;;
25717;SDS011;13574;52.040;5.692;2023-04-06T00:11:19;13.43;;;7.72;;
25717;SDS011;13574;52.040;5.692;2023-04-06T00:13:45;14.95;;;8.20;;
25717;SDS011;13574;52.040;5.692;2023-04-06T00:16:11;16.52;;;7.78;;
25717;SDS011;13574;52.040;5.692;2023-04-06T00:18:37;13.20;;;7.10;;
25717;SDS011;13574;52.040;5.692;2023-04-06T00:21:03;15.65;;;7.85;;
25717;SDS011;13574;52.040;5.692;2023-04-06T00:23:29;13.27;;;7.55;;
25717;SDS011;13574;52.040;5.692;2023-04-06T00:25:54;13.70;;;7.82;;
25717;SDS011;13574;52.040;5.692;2023-04-06T00:28:20;11.40;;;7.00;;
25717;SDS011;13574;52.040;5.692;2023-04-06T00:30:50;17.05;;;8.10;;
25717;SDS011;13574;52.040;5.692;2023-04-06T00:33:18;14.93;;;8.48;;
25717;SDS011;13574;52.040;5.692;2023-04-06T00:35:44;17.75;;;8.05;;
25717;SDS011;13574;52.040;5.692;2023-04-06T00:38:10;12.02;;;7.68;;
25717;SDS011;13574;52.040;5.692;2023-04-06T00:40:36;12.75;;;8.32;;
25717;SDS011;13574;52.040;5.692;2023-04-06T00:43:04;15.45;;;7.57;;
25717;SDS011;13574;52.040;5.692;2023-04-06T00:45:34;12.90;;;7.40;;
25717;SDS011;13574;52.040;5.692;2023-04-06T00:48:00;12.93;;;7.72;;
25717;SDS011;13574;52.040;5.692;2023-04-06T00:50:26;15.90;;;7.90;;
25717;SDS011;13574;52.040;5.692;2023-04-06T00:52:53;14.48;;;7.40;;
25717;SDS011;13574;52.040;5.692;2023-04-06T00:55:21;11.63;;;7.10;;
25717;SDS011;13574;52.040;5.692;2023-04-06T00:57:46;10.98;;;6.90;;
25717;SDS011;13574;52.040;5.692;2023-04-06T01:00:12;13.57;;;6.78;;
25717;SDS011;13574;52.040;5.692;2023-04-06T01:02:39;13.48;;;7.30;;
25717;SDS011;13574;52.040;5.692;2023-04-06T01:05:05;11.90;;;7.15;;
25717;SDS011;13574;52.040;5.692;2023-04-06T01:07:31;13.13;;;7.10;;
25717;SDS011;13574;52.040;5.692;2023-04-06T01:09:57;13.15;;;6.63;;
25717;SDS011;13574;52.040;5.692;2023-04-06T01:12:23;14.18;;;7.32;;
25717;SDS011;13574;52.040;5.692;2023-04-06T01:14:49;13.93;;;7.15;;
25717;SDS011;13574;52.040;5.692;2023-04-06T01:17:15;16.33;;;7.35;;
25717;SDS011;13574;52.040;5.692;2023-04-06T01:19:41;13.15;;;7.75;;
25717;SDS011;13574;52.040;5.692;2023-04-06T01:22:06;13.00;;;7.20;;
25717;SDS011;13574;52.040;5.692;2023-04-06T01:24:32;15.05;;;7.07;;
25717;SDS011;13574;52.040;5.692;2023-04-06T01:26:58;12.98;;;7.20;;
25717;SDS011;13574;52.040;5.692;2023-04-06T01:29:25;13.27;;;7.03;;
25717;SDS011;13574;52.040;5.692;2023-04-06T01:31:51;11.85;;;7.28;;
25717;SDS011;13574;52.040;5.692;2023-04-06T01:34:17;13.85;;;7.68;;
25717;SDS011;13574;52.040;5.692;2023-04-06T01:36:43;14.38;;;6.63;;
25717;SDS011;13574;52.040;5.692;2023-04-06T01:39:08;13.55;;;7.72;;
25717;SDS011;13574;52.040;5.692;2023-04-06T01:41:34;13.35;;;6.90;;
25717;SDS011;13574;52.040;5.692;2023-04-06T01:44:01;12.48;;;6.90;;
25717;SDS011;13574;52.040;5.692;2023-04-06T01:46:27;13.27;;;7.78;;
25717;SDS011;13574;52.040;5.692;2023-04-06T01:48:52;16.65;;;6.97;;
25717;SDS011;13574;52.040;5.692;2023-04-06T01:51:18;14.40;;;7.45;;
25717;SDS011;13574;52.040;5.692;2023-04-06T01:53:44;13.48;;;7.05;;
25717;SDS011;13574;52.040;5.692;2023-04-06T01:56:10;15.25;;;7.97;;
25717;SDS011;13574;52.040;5.692;2023-04-06T01:58:36;16.05;;;8.02;;
25717;SDS011;13574;52.040;5.692;2023-04-06T02:01:01;14.35;;;7.25;;
25717;SDS011;13574;52.040;5.692;2023-04-06T02:03:27;13.25;;;7.30;;
25717;SDS011;13574;52.040;5.692;2023-04-06T02:05:53;15.77;;;7.90;;
25717;SDS011;13574;52.040;5.692;2023-04-06T02:08:18;12.77;;;7.15;;
25717;SDS011;13574;52.040;5.692;2023-04-06T02:10:44;13.57;;;7.45;;
25717;SDS011;13574;52.040;5.692;2023-04-06T02:13:10;14.50;;;7.32;;
25717;SDS011;13574;52.040;5.692;2023-04-06T02:15:36;14.25;;;7.30;;
25717;SDS011;13574;52.040;5.692;2023-04-06T02:18:01;15.73;;;7.85;;
25717;SDS011;13574;52.040;5.692;2023-04-06T02:20:27;13.60;;;7.63;;
25717;SDS011;13574;52.040;5.692;2023-04-06T02:22:53;13.30;;;7.70;;
25717;SDS011;13574;52.040;5.692;2023-04-06T02:25:18;14.48;;;8.02;;
25717;SDS011;13574;52.040;5.692;2023-04-06T02:27:44;14.27;;;7.50;;
25717;SDS011;13574;52.040;5.692;2023-04-06T02:30:10;12.93;;;7.38;;
25717;SDS011;13574;52.040;5.692;2023-04-06T02:32:36;12.75;;;7.78;;
25717;SDS011;13574;52.040;5.692;2023-04-06T02:35:01;14.10;;;7.93;;
25717;SDS011;13574;52.040;5.692;2023-04-06T02:37:27;15.23;;;8.00;;
25717;SDS011;13574;52.040;5.692;2023-04-06T02:39:53;14.02;;;7.55;;
25717;SDS011;13574;52.040;5.692;2023-04-06T02:42:19;15.55;;;7.55;;
25717;SDS011;13574;52.040;5.692;2023-04-06T02:44:45;14.07;;;7.28;;
25717;SDS011;13574;52.040;5.692;2023-04-06T02:47:11;15.00;;;8.57;;
25717;SDS011;13574;52.040;5.692;2023-04-06T02:49:36;15.35;;;8.10;;
25717;SDS011;13574;52.040;5.692;2023-04-06T02:52:02;13.10;;;7.07;;
25717;SDS011;13574;52.040;5.692;2023-04-06T02:54:28;14.45;;;7.88;;
25717;SDS011;13574;52.040;5.692;2023-04-06T02:56:54;17.48;;;8.18;;
25717;SDS011;13574;52.040;5.692;2023-04-06T02:59:20;12.82;;;7.38;;
25717;SDS011;13574;52.040;5.692;2023-04-06T03:01:45;14.95;;;7.72;;
25717;SDS011;13574;52.040;5.692;2023-04-06T03:04:11;14.48;;;8.00;;
25717;SDS011;13574;52.040;5.692;2023-04-06T03:06:37;13.38;;;7.78;;
25717;SDS011;13574;52.040;5.692;2023-04-06T03:09:03;17.55;;;7.75;;
25717;SDS011;13574;52.040;5.692;2023-04-06T03:11:28;14.45;;;7.85;;
25717;SDS011;13574;52.040;5.692;2023-04-06T03:13:54;14.85;;;7.30;;
25717;SDS011;13574;52.040;5.692;2023-04-06T03:16:20;14.60;;;7.97;;
25717;SDS011;13574;52.040;5.692;2023-04-06T03:18:46;15.13;;;8.32;;
25717;SDS011;13574;52.040;5.692;2023-04-06T03:21:12;12.57;;;7.95;;
25717;SDS011;13574;52.040;5.692;2023-04-06T03:23:40;13.45;;;7.90;;
25717;SDS011;13574;52.040;5.692;2023-04-06T03:26:06;13.75;;;8.70;;
25717;SDS011;13574;52.040;5.692;2023-04-06T03:28:31;15.60;;;8.30;;
25717;SDS011;13574;52.040;5.692;2023-04-06T03:30:57;13.65;;;8.23;;
25717;SDS011;13574;52.040;5.692;2023-04-06T03:33:23;15.10;;;8.40;;
25717;SDS011;13574;52.040;5.692;2023-04-06T03:35:48;15.13;;;8.23;;
25717;SDS011;13574;52.040;5.692;2023-04-06T03:38:14;16.27;;;8.80;;
25717;SDS011;13574;52.040;5.692;2023-04-06T03:40:40;16.42;;;8.85;;
25717;SDS011;13574;52.040;5.692;2023-04-06T03:43:07;14.48;;;8.20;;
25717;SDS011;13574;52.040;5.692;2023-04-06T03:45:33;14.90;;;8.13;;
25717;SDS011;13574;52.040;5.692;2023-04-06T03:47:59;14.68;;;8.27;;
25717;SDS011;13574;52.040;5.692;2023-04-06T03:50:25;14.93;;;8.65;;
25717;SDS011;13574;52.040;5.692;2023-04-06T03:52:51;14.45;;;8.57;;
25717;SDS011;13574;52.040;5.692;2023-04-06T03:55:17;17.30;;;8.82;;
25717;SDS011;13574;52.040;5.692;2023-04-06T03:57:42;13.48;;;8.20;;
25717;SDS011;13574;52.040;5.692;2023-04-06T04:00:08;17.17;;;8.65;;
25717;SDS011;13574;52.040;5.692;2023-04-06T04:02:34;14.82;;;8.32;;
25717;SDS011;13574;52.040;5.692;2023-04-06T04:05:00;14.95;;;8.60;;
25717;SDS011;13574;52.040;5.692;2023-04-06T04:07:26;13.90;;;8.32;;
25717;SDS011;13574;52.040;5.692;2023-04-06T04:09:51;16.58;;;8.52;;
25717;SDS011;13574;52.040;5.692;2023-04-06T04:12:17;14.80;;;8.95;;
25717;SDS011;13574;52.040;5.692;2023-04-06T04:14:43;14.52;;;8.38;;
25717;SDS011;13574;52.040;5.692;2023-04-06T04:17:09;15.68;;;8.10;;
25717;SDS011;13574;52.040;5.692;2023-04-06T04:19:35;16.17;;;8.50;;
25717;SDS011;13574;52.040;5.692;2023-04-06T04:22:00;13.68;;;8.48;;
25717;SDS011;13574;52.040;5.692;2023-04-06T04:24:29;16.67;;;8.68;;
25717;SDS011;13574;52.040;5.692;2023-04-06T04:26:55;17.02;;;8.45;;
25717;SDS011;13574;52.040;5.692;2023-04-06T04:29:21;17.08;;;8.65;;
25717;SDS011;13574;52.040;5.692;2023-04-06T04:31:47;16.10;;;9.35;;
25717;SDS011;13574;52.040;5.692;2023-04-06T04:34:14;14.77;;;8.60;;
25717;SDS011;13574;52.040;5.692;2023-04-06T04:36:40;14.32;;;8.23;;
25717;SDS011;13574;52.040;5.692;2023-04-06T04:39:07;17.77;;;9.07;;
25717;SDS011;13574;52.040;5.692;2023-04-06T04:41:33;17.98;;;8.95;;
25717;SDS011;13574;52.040;5.692;2023-04-06T04:43:58;14.13;;;8.55;;
25717;SDS011;13574;52.040;5.692;2023-04-06T04:46:24;16.52;;;8.82;;
25717;SDS011;13574;52.040;5.692;2023-04-06T04:48:50;17.60;;;9.50;;
25717;SDS011;13574;52.040;5.692;2023-04-06T04:51:15;19.20;;;9.98;;
25717;SDS011;13574;52.040;5.692;2023-04-06T04:53:41;14.55;;;8.98;;
25717;SDS011;13574;52.040;5.692;2023-04-06T04:56:09;17.83;;;9.60;;
25717;SDS011;13574;52.040;5.692;2023-04-06T04:58:35;15.73;;;9.23;;
25717;SDS011;13574;52.040;5.692;2023-04-06T05:01:01;17.65;;;10.15;;
25717;SDS011;13574;52.040;5.692;2023-04-06T05:03:26;17.00;;;9.98;;
25717;SDS011;13574;52.040;5.692;2023-04-06T05:05:52;16.25;;;9.90;;
25717;SDS011;13574;52.040;5.692;2023-04-06T05:08:18;19.83;;;10.60;;
25717;SDS011;13574;52.040;5.692;2023-04-06T05:10:45;22.13;;;10.38;;
25717;SDS011;13574;52.040;5.692;2023-04-06T05:13:11;20.63;;;10.07;;
25717;SDS011;13574;52.040;5.692;2023-04-06T05:15:37;18.15;;;9.63;;
25717;SDS011;13574;52.040;5.692;2023-04-06T05:18:06;22.02;;;10.68;;
25717;SDS011;13574;52.040;5.692;2023-04-06T05:20:33;20.00;;;10.93;;
25717;SDS011;13574;52.040;5.692;2023-04-06T05:22:59;20.88;;;10.52;;
25717;SDS011;13574;52.040;5.692;2023-04-06T05:25:25;21.38;;;10.98;;
25717;SDS011;13574;52.040;5.692;2023-04-06T05:27:51;18.33;;;10.15;;
25717;SDS011;13574;52.040;5.692;2023-04-06T05:30:17;21.02;;;11.00;;
25717;SDS011;13574;52.040;5.692;2023-04-06T05:32:43;21.88;;;10.90;;
25717;SDS011;13574;52.040;5.692;2023-04-06T05:35:09;18.60;;;10.13;;
25717;SDS011;13574;52.040;5.692;2023-04-06T05:37:35;22.70;;;11.10;;
25717;SDS011;13574;52.040;5.692;2023-04-06T05:40:01;21.73;;;11.55;;
25717;SDS011;13574;52.040;5.692;2023-04-06T05:42:27;20.23;;;11.10;;
25717;SDS011;13574;52.040;5.692;2023-04-06T05:44:53;22.05;;;11.32;;
25717;SDS011;13574;52.040;5.692;2023-04-06T05:47:20;21.33;;;11.48;;
25717;SDS011;13574;52.040;5.692;2023-04-06T05:49:45;18.38;;;11.43;;
25717;SDS011;13574;52.040;5.692;2023-04-06T05:52:11;20.65;;;11.55;;
25717;SDS011;13574;52.040;5.692;2023-04-06T05:54:37;22.15;;;11.68;;
25717;SDS011;13574;52.040;5.692;2023-04-06T05:57:03;22.90;;;12.02;;
25717;SDS011;13574;52.040;5.692;2023-04-06T05:59:31;22.05;;;11.50;;
25717;SDS011;13574;52.040;5.692;2023-04-06T06:01:59;23.23;;;12.93;;
25717;SDS011;13574;52.040;5.692;2023-04-06T06:04:26;22.48;;;12.60;;
25717;SDS011;13574;52.040;5.692;2023-04-06T06:07:00;22.42;;;12.35;;
25717;SDS011;13574;52.040;5.692;2023-04-06T06:09:26;23.98;;;12.35;;
25717;SDS011;13574;52.040;5.692;2023-04-06T06:11:52;21.13;;;11.48;;
25717;SDS011;13574;52.040;5.692;2023-04-06T06:14:17;18.90;;;11.80;;
25717;SDS011;13574;52.040;5.692;2023-04-06T06:16:43;21.63;;;12.82;;
25717;SDS011;13574;52.040;5.692;2023-04-06T06:19:09;21.83;;;12.50;;
25717;SDS011;13574;52.040;5.692;2023-04-06T06:21:35;24.90;;;13.15;;
25717;SDS011;13574;52.040;5.692;2023-04-06T06:24:01;23.30;;;13.20;;
25717;SDS011;13574;52.040;5.692;2023-04-06T06:26:27;22.63;;;12.45;;
25717;SDS011;13574;52.040;5.692;2023-04-06T06:28:52;27.27;;;12.88;;
25717;SDS011;13574;52.040;5.692;2023-04-06T06:31:18;22.98;;;12.85;;
25717;SDS011;13574;52.040;5.692;2023-04-06T06:33:47;27.88;;;13.35;;
25717;SDS011;13574;52.040;5.692;2023-04-06T06:36:16;21.83;;;12.63;;
25717;SDS011;13574;52.040;5.692;2023-04-06T06:38:42;23.52;;;13.55;;
25717;SDS011;13574;52.040;5.692;2023-04-06T06:41:08;26.35;;;12.98;;
25717;SDS011;13574;52.040;5.692;2023-04-06T06:43:34;26.25;;;14.27;;
25717;SDS011;13574;52.040;5.692;2023-04-06T06:46:00;21.23;;;13.23;;
25717;SDS011;13574;52.040;5.692;2023-04-06T06:48:25;26.02;;;14.15;;
25717;SDS011;13574;52.040;5.692;2023-04-06T06:50:51;23.05;;;13.32;;
25717;SDS011;13574;52.040;5.692;2023-04-06T06:53:17;23.20;;;13.65;;
25717;SDS011;13574;52.040;5.692;2023-04-06T06:55:43;24.50;;;13.48;;
25717;SDS011;13574;52.040;5.692;2023-04-06T06:58:09;26.25;;;13.68;;
25717;SDS011;13574;52.040;5.692;2023-04-06T07:00:35;21.50;;;12.80;;
25717;SDS011;13574;52.040;5.692;2023-04-06T07:03:01;25.98;;;13.85;;
25717;SDS011;13574;52.040;5.692;2023-04-06T07:05:26;24.17;;;13.07;;
25717;SDS011;13574;52.040;5.692;2023-04-06T07:07:52;22.98;;;13.50;;
25717;SDS011;13574;52.040;5.692;2023-04-06T07:10:18;22.33;;;13.18;;
25717;SDS011;13574;52.040;5.692;2023-04-06T07:12:44;25.02;;;14.00;;
25717;SDS011;13574;52.040;5.692;2023-04-06T07:15:10;25.38;;;14.18;;
25717;SDS011;13574;52.040;5.692;2023-04-06T07:17:35;27.73;;;13.82;;
25717;SDS011;13574;52.040;5.692;2023-04-06T07:20:01;31.45;;;14.45;;
25717;SDS011;13574;52.040;5.692;2023-04-06T07:22:27;27.75;;;15.00;;
25717;SDS011;13574;52.040;5.692;2023-04-06T07:24:53;25.58;;;14.07;;
25717;SDS011;13574;52.040;5.692;2023-04-06T07:27:19;25.08;;;13.35;;
25717;SDS011;13574;52.040;5.692;2023-04-06T07:29:45;26.85;;;13.77;;
25717;SDS011;13574;52.040;5.692;2023-04-06T07:32:11;23.05;;;13.20;;
25717;SDS011;13574;52.040;5.692;2023-04-06T07:34:40;27.10;;;14.40;;
25717;SDS011;13574;52.040;5.692;2023-04-06T07:37:05;25.48;;;13.85;;
25717;SDS011;13574;52.040;5.692;2023-04-06T07:39:31;26.67;;;14.20;;
25717;SDS011;13574;52.040;5.692;2023-04-06T07:41:57;25.52;;;13.90;;
25717;SDS011;13574;52.040;5.692;2023-04-06T07:44:22;26.88;;;14.30;;
25717;SDS011;13574;52.040;5.692;2023-04-06T07:46:48;26.08;;;14.35;;
25717;SDS011;13574;52.040;5.692;2023-04-06T07:49:14;25.30;;;13.95;;
25717;SDS011;13574;52.040;5.692;2023-04-06T07:51:40;23.10;;;14.55;;
25717;SDS011;13574;52.040;5.692;2023-04-06T07:54:05;24.83;;;14.10;;
25717;SDS011;13574;52.040;5.692;2023-04-06T07:56:31;26.05;;;14.18;;
25717;SDS011;13574;52.040;5.692;2023-04-06T07:58:57;26.33;;;15.00;;
25717;SDS011;13574;52.040;5.692;2023-04-06T08:01:23;28.33;;;13.68;;
25717;SDS011;13574;52.040;5.692;2023-04-06T08:03:49;28.05;;;14.85;;
25717;SDS011;13574;52.040;5.692;2023-04-06T08:06:15;25.40;;;14.77;;
25717;SDS011;13574;52.040;5.692;2023-04-06T08:08:42;26.90;;;15.18;;
25717;SDS011;13574;52.040;5.692;2023-04-06T08:11:08;25.67;;;14.57;;
25717;SDS011;13574;52.040;5.692;2023-04-06T08:13:34;27.15;;;14.75;;
25717;SDS011;13574;52.040;5.692;2023-04-06T08:16:00;25.67;;;14.82;;
25717;SDS011;13574;52.040;5.692;2023-04-06T08:18:26;26.55;;;14.98;;
25717;SDS011;13574;52.040;5.692;2023-04-06T08:20:52;25.05;;;14.52;;
25717;SDS011;13574;52.040;5.692;2023-04-06T08:23:19;27.52;;;14.77;;
25717;SDS011;13574;52.040;5.692;2023-04-06T08:25:45;25.92;;;15.50;;
25717;SDS011;13574;52.040;5.692;2023-04-06T08:28:10;26.05;;;14.93;;
25717;SDS011;13574;52.040;5.692;2023-04-06T08:30:37;26.75;;;15.98;;
25717;SDS011;13574;52.040;5.692;2023-04-06T08:33:05;25.67;;;15.10;;
25717;SDS011;13574;52.040;5.692;2023-04-06T08:35:31;25.83;;;14.93;;
25717;SDS011;13574;52.040;5.692;2023-04-06T08:37:57;30.45;;;15.13;;
25717;SDS011;13574;52.040;5.692;2023-04-06T08:40:23;25.08;;;15.90;;
25717;SDS011;13574;52.040;5.692;2023-04-06T08:42:52;24.70;;;14.75;;
25717;SDS011;13574;52.040;5.692;2023-04-06T08:45:20;24.70;;;15.32;;
25717;SDS011;13574;52.040;5.692;2023-04-06T08:47:50;26.83;;;15.80;;
25717;SDS011;13574;52.040;5.692;2023-04-06T08:50:17;28.25;;;15.43;;
25717;SDS011;13574;52.040;5.692;2023-04-06T08:52:44;27.23;;;15.55;;
25717;SDS011;13574;52.040;5.692;2023-04-06T08:55:12;27.58;;;15.20;;
25717;SDS011;13574;52.040;5.692;2023-04-06T08:57:38;27.45;;;16.13;;
25717;SDS011;13574;52.040;5.692;2023-04-06T09:00:06;29.05;;;16.42;;
25717;SDS011;13574;52.040;5.692;2023-04-06T09:02:36;32.63;;;16.25;;
25717;SDS011;13574;52.040;5.692;2023-04-06T09:05:08;28.45;;;15.50;;
25717;SDS011;13574;52.040;5.692;2023-04-06T09:07:35;24.55;;;15.73;;
25717;SDS011;13574;52.040;5.692;2023-04-06T09:10:02;29.65;;;16.67;;
25717;SDS011;13574;52.040;5.692;2023-04-06T09:12:31;30.85;;;16.33;;
25717;SDS011;13574;52.040;5.692;2023-04-06T09:14:58;30.52;;;15.98;;
25717;SDS011;13574;52.040;5.692;2023-04-06T09:17:31;27.27;;;16.10;;
25717;SDS011;13574;52.040;5.692;2023-04-06T09:20:02;37.65;;;17.20;;
25717;SDS011;13574;52.040;5.692;2023-04-06T09:22:35;29.95;;;17.33;;
25717;SDS011;13574;52.040;5.692;2023-04-06T09:25:04;32.63;;;16.77;;
25717;SDS011;13574;52.040;5.692;2023-04-06T09:27:37;31.13;;;17.17;;
25717;SDS011;13574;52.040;5.692;2023-04-06T09:30:04;27.25;;;17.42;;
25717;SDS011;13574;52.040;5.692;2023-04-06T09:32:30;28.92;;;16.90;;
25717;SDS011;13574;52.040;5.692;2023-04-06T09:35:08;32.03;;;18.48;;
25717;SDS011;13574;52.040;5.692;2023-04-06T09:37:35;29.83;;;17.50;;
25717;SDS011;13574;52.040;5.692;2023-04-06T09:40:07;29.48;;;17.85;;
25717;SDS011;13574;52.040;5.692;2023-04-06T09:42:33;29.75;;;18.30;;
25717;SDS011;13574;52.040;5.692;2023-04-06T09:45:00;29.90;;;16.65;;
25717;SDS011;13574;52.040;5.692;2023-04-06T09:47:26;33.88;;;18.20;;
25717;SDS011;13574;52.040;5.692;2023-04-06T09:49:56;35.55;;;18.58;;
25717;SDS011;13574;52.040;5.692;2023-04-06T09:52:24;33.08;;;18.42;;
25717;SDS011;13574;52.040;5.692;2023-04-06T09:54:59;26.77;;;16.92;;
25717;SDS011;13574;52.040;5.692;2023-04-06T10:00:06;30.95;;;19.17;;
25717;SDS011;13574;52.040;5.692;2023-04-06T10:07:59;28.77;;;16.85;;
25717;SDS011;13574;52.040;5.692;2023-04-06T10:10:29;34.25;;;19.48;;
25717;SDS011;13574;52.040;5.692;2023-04-06T10:12:55;30.88;;;18.38;;
25717;SDS011;13574;52.040;5.692;2023-04-06T10:15:21;33.17;;;18.73;;
25717;SDS011;13574;52.040;5.692;2023-04-06T10:17:47;28.80;;;17.92;;
25717;SDS011;13574;52.040;5.692;2023-04-06T10:20:16;45.42;;;19.45;;
25717;SDS011;13574;52.040;5.692;2023-04-06T10:23:06;34.33;;;18.80;;
25717;SDS011;13574;52.040;5.692;2023-04-06T10:25:39;26.92;;;17.27;;
25717;SDS011;13574;52.040;5.692;2023-04-06T10:28:05;31.88;;;18.30;;
25717;SDS011;13574;52.040;5.692;2023-04-06T10:30:32;28.17;;;17.70;;
25717;SDS011;13574;52.040;5.692;2023-04-06T10:32:59;33.00;;;17.85;;
25717;SDS011;13574;52.040;5.692;2023-04-06T10:35:25;29.35;;;18.17;;
25717;SDS011;13574;52.040;5.692;2023-04-06T10:38:03;27.55;;;17.00;;
25717;SDS011;13574;52.040;5.692;2023-04-06T10:40:29;28.70;;;17.17;;
25717;SDS011;13574;52.040;5.692;2023-04-06T10:43:06;25.50;;;16.13;;
25717;SDS011;13574;52.040;5.692;2023-04-06T10:45:36;27.60;;;16.45;;
25717;SDS011;13574;52.040;5.692;2023-04-06T10:48:15;30.80;;;16.55;;
25717;SDS011;13574;52.040;5.692;2023-04-06T10:50:49;29.35;;;16.08;;
25717;SDS011;13574;52.040;5.692;2023-04-06T10:53:34;22.88;;;14.70;;
25717;SDS011;13574;52.040;5.692;2023-04-06T10:56:00;24.55;;;14.82;;
25717;SDS011;13574;52.040;5.692;2023-04-06T10:58:28;23.58;;;14.80;;
25717;SDS011;13574;52.040;5.692;2023-04-06T11:00:55;24.83;;;14.52;;
25717;SDS011;13574;52.040;5.692;2023-04-06T11:03:21;22.08;;;14.43;;
25717;SDS011;13574;52.040;5.692;2023-04-06T11:05:48;21.88;;;14.00;;
25717;SDS011;13574;52.040;5.692;2023-04-06T11:08:22;26.40;;;14.07;;
25717;SDS011;13574;52.040;5.692;2023-04-06T11:10:47;20.15;;;13.32;;
25717;SDS011;13574;52.040;5.692;2023-04-06T11:13:14;19.77;;;13.38;;
25717;SDS011;13574;52.040;5.692;2023-04-06T11:15:40;21.35;;;13.50;;
25717;SDS011;13574;52.040;5.692;2023-04-06T11:18:05;18.35;;;12.82;;
25717;SDS011;13574;52.040;5.692;2023-04-06T11:20:31;19.73;;;12.88;;
25717;SDS011;13574;52.040;5.692;2023-04-06T11:22:57;18.23;;;11.65;;
25717;SDS011;13574;52.040;5.692;2023-04-06T11:25:24;20.42;;;11.90;;
25717;SDS011;13574;52.040;5.692;2023-04-06T11:27:54;18.60;;;10.95;;
25717;SDS011;13574;52.040;5.692;2023-04-06T11:30:20;17.05;;;10.93;;
25717;SDS011;13574;52.040;5.692;2023-04-06T11:32:46;14.60;;;10.13;;
25717;SDS011;13574;52.040;5.692;2023-04-06T11:35:22;19.33;;;10.65;;
25717;SDS011;13574;52.040;5.692;2023-04-06T11:37:51;17.10;;;10.32;;
25717;SDS011;13574;52.040;5.692;2023-04-06T11:40:20;19.52;;;11.23;;
25717;SDS011;13574;52.040;5.692;2023-04-06T11:42:54;16.58;;;10.48;;
25717;SDS011;13574;52.040;5.692;2023-04-06T11:45:21;15.55;;;9.95;;
25717;SDS011;13574;52.040;5.692;2023-04-06T11:47:55;14.20;;;9.38;;
25717;SDS011;13574;52.040;5.692;2023-04-06T11:50:22;15.55;;;9.13;;
25717;SDS011;13574;52.040;5.692;2023-04-06T11:52:48;16.70;;;9.07;;
25717;SDS011;13574;52.040;5.692;2023-04-06T11:55:24;16.02;;;9.20;;
25717;SDS011;13574;52.040;5.692;2023-04-06T11:57:50;15.98;;;8.55;;
25717;SDS011;13574;52.040;5.692;2023-04-06T12:00:16;15.02;;;8.55;;
25717;SDS011;13574;52.040;5.692;2023-04-06T12:02:45;17.02;;;9.63;;
25717;SDS011;13574;52.040;5.692;2023-04-06T12:05:11;15.35;;;9.25;;
25717;SDS011;13574;52.040;5.692;2023-04-06T12:07:37;15.50;;;9.77;;
25717;SDS011;13574;52.040;5.692;2023-04-06T12:10:03;17.25;;;9.38;;
25717;SDS011;13574;52.040;5.692;2023-04-06T12:12:29;15.43;;;9.55;;
25717;SDS011;13574;52.040;5.692;2023-04-06T12:14:56;16.70;;;10.25;;
25717;SDS011;13574;52.040;5.692;2023-04-06T12:17:22;19.13;;;11.57;;
25717;SDS011;13574;52.040;5.692;2023-04-06T12:19:48;20.13;;;11.05;;
25717;SDS011;13574;52.040;5.692;2023-04-06T12:22:14;16.92;;;9.38;;
25717;SDS011;13574;52.040;5.692;2023-04-06T12:24:41;15.23;;;9.60;;
25717;SDS011;13574;52.040;5.692;2023-04-06T12:27:06;13.95;;;8.60;;
25717;SDS011;13574;52.040;5.692;2023-04-06T12:29:33;14.38;;;8.57;;
25717;SDS011;13574;52.040;5.692;2023-04-06T12:31:59;17.30;;;9.10;;
25717;SDS011;13574;52.040;5.692;2023-04-06T12:34:26;12.43;;;7.75;;
25717;SDS011;13574;52.040;5.692;2023-04-06T12:36:52;12.80;;;7.40;;
25717;SDS011;13574;52.040;5.692;2023-04-06T12:39:18;14.88;;;7.65;;
25717;SDS011;13574;52.040;5.692;2023-04-06T12:41:45;12.35;;;7.68;;
25717;SDS011;13574;52.040;5.692;2023-04-06T12:44:11;13.90;;;7.45;;
25717;SDS011;13574;52.040;5.692;2023-04-06T12:46:36;12.77;;;7.13;;
25717;SDS011;13574;52.040;5.692;2023-04-06T12:49:02;13.10;;;7.57;;
25717;SDS011;13574;52.040;5.692;2023-04-06T12:51:28;14.48;;;7.75;;
25717;SDS011;13574;52.040;5.692;2023-04-06T12:53:54;13.02;;;6.75;;
25717;SDS011;13574;52.040;5.692;2023-04-06T12:56:19;13.38;;;7.93;;
25717;SDS011;13574;52.040;5.692;2023-04-06T12:58:50;14.00;;;7.50;;
25717;SDS011;13574;52.040;5.692;2023-04-06T13:01:16;12.73;;;7.65;;
25717;SDS011;13574;52.040;5.692;2023-04-06T13:03:42;13.60;;;7.25;;
25717;SDS011;13574;52.040;5.692;2023-04-06T13:06:08;13.35;;;7.85;;
25717;SDS011;13574;52.040;5.692;2023-04-06T13:08:35;13.05;;;7.65;;
25717;SDS011;13574;52.040;5.692;2023-04-06T13:11:02;13.73;;;8.05;;
25717;SDS011;13574;52.040;5.692;2023-04-06T13:13:28;13.63;;;7.78;;
25717;SDS011;13574;52.040;5.692;2023-04-06T13:15:58;15.85;;;8.20;;
25717;SDS011;13574;52.040;5.692;2023-04-06T13:18:29;17.75;;;7.93;;
25717;SDS011;13574;52.040;5.692;2023-04-06T13:20:56;13.80;;;8.15;;
25717;SDS011;13574;52.040;5.692;2023-04-06T13:23:25;11.98;;;7.13;;
25717;SDS011;13574;52.040;5.692;2023-04-06T13:25:58;13.13;;;7.80;;
25717;SDS011;13574;52.040;5.692;2023-04-06T13:28:31;12.48;;;8.13;;
25717;SDS011;13574;52.040;5.692;2023-04-06T13:30:59;13.65;;;7.70;;
25717;SDS011;13574;52.040;5.692;2023-04-06T13:33:25;13.80;;;8.02;;
25717;SDS011;13574;52.040;5.692;2023-04-06T13:35:51;14.05;;;7.97;;
25717;SDS011;13574;52.040;5.692;2023-04-06T13:38:17;14.18;;;8.45;;
25717;SDS011;13574;52.040;5.692;2023-04-06T13:40:43;15.35;;;8.60;;
25717;SDS011;13574;52.040;5.692;2023-04-06T13:43:09;15.85;;;8.80;;
25717;SDS011;13574;52.040;5.692;2023-04-06T13:45:34;14.02;;;8.68;;
25717;SDS011;13574;52.040;5.692;2023-04-06T13:48:00;16.45;;;8.55;;
25717;SDS011;13574;52.040;5.692;2023-04-06T13:50:26;13.57;;;8.30;;
25717;SDS011;13574;52.040;5.692;2023-04-06T13:52:52;14.82;;;9.00;;
25717;SDS011;13574;52.040;5.692;2023-04-06T13:55:18;13.18;;;8.18;;
25717;SDS011;13574;52.040;5.692;2023-04-06T13:57:44;15.45;;;8.60;;
25717;SDS011;13574;52.040;5.692;2023-04-06T14:00:10;14.35;;;8.30;;
25717;SDS011;13574;52.040;5.692;2023-04-06T14:02:37;17.10;;;9.48;;
25717;SDS011;13574;52.040;5.692;2023-04-06T14:05:04;18.23;;;9.00;;
25717;SDS011;13574;52.040;5.692;2023-04-06T14:07:31;12.93;;;8.20;;
25717;SDS011;13574;52.040;5.692;2023-04-06T14:09:58;15.05;;;9.00;;
25717;SDS011;13574;52.040;5.692;2023-04-06T14:12:25;17.42;;;9.10;;
25717;SDS011;13574;52.040;5.692;2023-04-06T14:14:51;21.90;;;9.98;;
25717;SDS011;13574;52.040;5.692;2023-04-06T14:17:17;18.52;;;10.25;;
25717;SDS011;13574;52.040;5.692;2023-04-06T14:19:43;18.05;;;9.48;;
25717;SDS011;13574;52.040;5.692;2023-04-06T14:22:09;20.20;;;10.10;;
25717;SDS011;13574;52.040;5.692;2023-04-06T14:24:35;17.02;;;9.73;;
25717;SDS011;13574;52.040;5.692;2023-04-06T14:27:01;17.45;;;9.65;;
25717;SDS011;13574;52.040;5.692;2023-04-06T14:29:27;18.17;;;10.05;;
25717;SDS011;13574;52.040;5.692;2023-04-06T14:31:53;18.35;;;9.98;;
25717;SDS011;13574;52.040;5.692;2023-04-06T14:34:24;19.38;;;10.90;;